Airfield :
LOGIN :

Register | Disclaimer

   EN    FR    IT 

 










Legend :    VFR   Marginal VFR   IFR   Intensive IFR   Very Intensive IFR
Visi :
Ceiling :
>= 8 km
>= 3000ft
5 to 8 km
1000 to 3000 ft
1500m to 5 km
500 to 1000 ft
800 to 1500m
200 to 500 ft
< 800m
< 200 ft
Symbols :   Thunderstorms  Fog  Heavy snow  Heavy precipitations  Wind > 20 kt
SIGMETs :     Misc.  Thunderstorms  Icing  Turbulence  Mountain Waves  Volcanic Ashes






- Airport Elevation : 1247 ft
- IATA code : PRG


LKPR - Praha Ruzyne

CURRENT METAR :
  • 191400Z 20010KT 170V230 9999 -SN SCT025 BKN045 01/M03 Q1009 BECMG 3000 SN BKN008

EXPIRED METARs :
  • 191351Z 20010KT 150V240 9999 -SN FEW025 BKN048 01/M03 Q1010 RMK REG QNH 1006
  • 191330Z 21015KT 9999 SCT025 BKN048 02/M03 Q1010 BECMG 3000 SN BKN012
  • 191300Z 22019KT 9999 BKN025 01/M03 Q1011 BECMG 3000 SN BKN012
  • 191230Z 23020KT 9999 BKN026 01/M03 Q1011 R88/CLRD// BECMG 3000 SN BKN012
  • 191208Z 22018KT 9999 BKN026 02/M03 Q1011 R88/CLRD// RMK REG QNH 1006
  • 191130Z 23013KT 9999 BKN026 02/M03 Q1012 R24/29//95 R30/35//94 NOSIG

TAF TAF LKPR
Valid from the 19 at 12:00 until the 20 at 18:00 UTC


191100Z 1912/2018 21016KT 9999 BKN022
TEMPO 1912/2005 24018G28KT -SNRA BKN012
PROB30
TEMPO 1915/1919 3000 SN OVC005
PROB30
TEMPO 1916/2003 24024G40KT
BECMG 2006/2008 CAVOK



MET'MAP, your aeronautical weather chart ! - Copyright ORBIFLY December 2007 - Disclaimer

ORBIFLY MET'MAP TEAM :

Programming & Development : Alexandra Zaïnal
Concept & original design : Baudouin d'Aumeries
Assistance for programming : Marc-Olivier Méhu
Technical & hardware support : Manuel Goepfert

Contact : metmap@orbifly.com




SOURCES & CREDITS :

   NOAA